Time;durP1;ratioP1;P1;durP2;ratioP2;P2;SDS_P1;SDS_P2;PMS_P1;PMS_P2;Temp;Humidity;BMP_temperature;BMP_pressure;BME280_temperature;BME280_humidity;BME280_pressure;Samples;Min_cycle;Max_cycle;Signal;HPM_P1;HPM_P2
2023/06/04 00:02:24;;;;;;;6.90;2.40;;;;;;;11.86;58.76;101285.52;107835;1261;60717;-83
2023/06/04 00:04:52;;;;;;;5.50;2.70;;;;;;;11.85;58.87;101286.38;107894;1258;60313;-83
2023/06/04 00:07:19;;;;;;;4.90;2.30;;;;;;;11.85;58.97;101289.54;107871;1261;73870;-83
2023/06/04 00:09:46;;;;;;;7.10;2.10;;;;;;;11.87;58.95;101291.48;107957;1257;72566;-83
2023/06/04 00:12:13;;;;;;;6.00;2.50;;;;;;;11.87;58.75;101289.65;107879;1263;72376;-83
2023/06/04 00:14:41;;;;;;;5.40;2.30;;;;;;;11.86;58.06;101285.04;107789;1257;60777;-83
2023/06/04 00:17:09;;;;;;;6.70;2.50;;;;;;;11.83;57.37;101286.63;108321;1260;60365;-83
2023/06/04 00:19:38;;;;;;;4.50;2.20;;;;;;;11.80;56.96;101288.89;107822;1257;73766;-83
2023/06/04 00:22:06;;;;;;;5.20;2.30;;;;;;;11.80;56.80;101288.46;107957;1262;72486;-83
2023/06/04 00:24:35;;;;;;;5.00;1.90;;;;;;;11.78;56.69;101289.88;108081;1257;72482;-82
2023/06/04 00:27:02;;;;;;;4.80;2.30;;;;;;;11.75;56.81;101290.64;108352;1260;61770;-80
2023/06/04 00:29:29;;;;;;;6.10;2.30;;;;;;;11.72;56.90;101290.52;107847;1258;60563;-83
2023/06/04 00:31:55;;;;;;;5.40;2.00;;;;;;;11.69;57.25;101288.58;107877;1258;73665;-83
2023/06/04 00:34:23;;;;;;;6.30;2.30;;;;;;;11.68;57.45;101288.98;107985;1257;72529;-83
2023/06/04 00:36:49;;;;;;;5.50;2.30;;;;;;;11.65;57.71;101287.09;108156;1257;71443;-81
2023/06/04 00:39:16;;;;;;;6.00;2.20;;;;;;;11.63;57.81;101287.26;107887;1257;61981;-84
2023/06/04 00:41:43;;;;;;;7.70;2.50;;;;;;;11.61;57.91;101287.64;107993;1257;60424;-83
2023/06/04 00:44:11;;;;;;;7.50;2.70;;;;;;;11.58;57.97;101287.71;107808;1258;72364;-82
2023/06/04 00:46:38;;;;;;;8.60;2.90;;;;;;;11.55;58.31;101293.45;107697;1260;71893;-82
2023/06/04 00:49:06;;;;;;;7.10;2.40;;;;;;;11.46;58.47;101294.02;107805;1260;71425;-83
2023/06/04 00:51:33;;;;;;;4.80;2.40;;;;;;;11.41;58.55;101295.66;108025;1257;61840;-83
2023/06/04 00:54:01;;;;;;;4.80;2.30;;;;;;;11.37;58.76;101299.55;107725;1257;60472;-84
2023/06/04 00:56:28;;;;;;;5.70;2.40;;;;;;;11.33;58.76;101299.98;107821;1257;73887;-83
2023/06/04 00:58:55;;;;;;;4.40;2.00;;;;;;;11.29;58.99;101300.55;107791;1257;72806;-85
2023/06/04 01:01:29;;;;;;;4.10;2.00;;;;;;;11.26;59.10;101300.77;107953;1257;72728;-83
2023/06/04 01:03:56;;;;;;;5.40;2.30;;;;;;;11.24;59.22;101304.53;107935;1257;61845;-83
2023/06/04 01:06:39;;;;;;;4.90;2.30;;;;;;;11.23;59.59;101307.23;107980;1259;60527;-83
2023/06/04 01:09:07;;;;;;;4.90;2.20;;;;;;;11.22;59.92;101310.30;107981;1257;73807;-84
2023/06/04 01:11:38;;;;;;;4.40;2.30;;;;;;;11.20;60.04;101309.93;108009;1257;72734;-82
2023/06/04 01:14:09;;;;;;;4.40;2.40;;;;;;;11.17;60.15;101311.86;107990;1258;71520;-82
2023/06/04 01:16:47;;;;;;;6.60;3.80;;;;;;;11.15;60.17;101311.77;107844;1258;60274;-83
2023/06/04 01:20:05;;;;;;;5.90;3.50;;;;;;;11.12;60.53;101306.43;108007;1257;60332;-83
2023/06/04 01:22:51;;;;;;;7.50;3.30;;;;;;;11.01;60.90;101306.71;107579;1257;73895;-82
2023/06/04 01:25:23;;;;;;;6.60;3.50;;;;;;;10.93;61.17;101304.77;107886;1257;71834;-82
2023/06/04 01:27:55;;;;;;;;;;;;;;;10.80;61.38;101301.92;107732;1257;71545;-82
2023/06/04 01:30:26;;;;;;;7.30;3.70;;;;;;;10.68;61.80;101303.84;107861;1257;61878;-82
2023/06/04 01:32:54;;;;;;;7.20;3.50;;;;;;;10.57;62.24;101311.11;107924;1258;60325;-82
2023/06/04 01:35:21;;;;;;;9.10;4.20;;;;;;;10.46;62.43;101315.56;107951;1258;72692;-82
2023/06/04 01:37:49;;;;;;;9.30;3.90;;;;;;;10.36;62.53;101320.00;107680;1257;72676;-82
2023/06/04 01:40:16;;;;;;;9.50;4.30;;;;;;;10.29;62.65;101316.55;107824;1262;72687;-82
2023/06/04 01:42:42;;;;;;;9.90;4.10;;;;;;;10.24;62.78;101319.32;107836;1257;61971;-82
2023/06/04 01:45:10;;;;;;;8.20;3.40;;;;;;;10.23;63.04;101317.61;107876;1257;60083;-81
2023/06/04 01:47:37;;;;;;;8.70;3.90;;;;;;;10.19;63.14;101321.50;107926;1260;73824;-82
2023/06/04 01:50:05;;;;;;;8.90;3.60;;;;;;;10.20;63.34;101324.33;107851;1257;71717;-82
2023/06/04 01:52:32;;;;;;;6.80;3.50;;;;;;;10.24;63.41;101324.74;107936;1257;72482;-82
2023/06/04 01:54:59;;;;;;;7.40;3.80;;;;;;;10.28;63.54;101322.34;107871;1257;61876;-82
2023/06/04 01:57:26;;;;;;;5.20;3.20;;;;;;;10.32;63.70;101321.73;107926;1257;60145;-83
2023/06/04 01:59:53;;;;;;;6.80;4.00;;;;;;;10.36;63.71;101320.63;108014;1257;73606;-83
2023/06/04 02:02:20;;;;;;;10.00;3.90;;;;;;;10.39;63.61;101323.85;107832;1257;72811;-82
2023/06/04 02:04:47;;;;;;;7.60;3.60;;;;;;;10.41;63.65;101326.20;107932;1257;72681;-83
2023/06/04 02:07:17;;;;;;;7.30;3.30;;;;;;;10.45;63.81;101331.94;107913;1260;61841;-82
2023/06/04 02:09:44;;;;;;;7.60;3.50;;;;;;;10.50;64.06;101333.89;107849;1258;60341;-83
2023/06/04 02:12:11;;;;;;;6.40;3.20;;;;;;;10.50;64.32;101335.66;107861;1257;74919;-82
2023/06/04 02:14:47;;;;;;;6.70;3.50;;;;;;;10.47;64.41;101339.63;107987;1257;72612;-82
2023/06/04 02:17:16;;;;;;;5.50;3.10;;;;;;;10.46;64.49;101336.77;107707;1257;71840;-84
2023/06/04 02:19:49;;;;;;;7.10;3.30;;;;;;;10.46;64.59;101339.65;107836;1257;60536;-83
2023/06/04 02:22:17;;;;;;;6.40;3.10;;;;;;;10.49;64.62;101340.73;107927;1257;60328;-82
2023/06/04 02:24:44;;;;;;;5.70;3.00;;;;;;;10.55;64.79;101345.42;107857;1257;72497;-82
2023/06/04 02:27:11;;;;;;;6.20;3.20;;;;;;;10.63;64.79;101344.98;107777;1257;72712;-83
2023/06/04 02:29:39;;;;;;;6.10;3.10;;;;;;;10.71;64.84;101343.98;107812;1258;71395;-83
2023/06/04 02:32:07;;;;;;;6.00;2.90;;;;;;;10.80;64.91;101343.08;107774;1256;62073;-84
2023/06/04 02:34:34;;;;;;;5.70;3.00;;;;;;;10.87;65.00;101335.45;107923;1257;60418;-83
2023/06/04 02:37:01;;;;;;;6.10;2.90;;;;;;;10.96;65.04;101338.38;107761;1257;73855;-83
2023/06/04 02:39:28;;;;;;;6.80;2.80;;;;;;;11.02;65.15;101334.98;108121;1257;72802;-84
2023/06/04 02:41:55;;;;;;;6.60;2.80;;;;;;;11.11;65.09;101343.94;107820;1257;71810;-83
2023/06/04 02:44:22;;;;;;;6.00;2.80;;;;;;;11.18;65.06;101346.59;107980;1257;60598;-83
2023/06/04 02:46:51;;;;;;;6.20;3.00;;;;;;;11.28;65.09;101343.16;107922;1257;60327;-83
2023/06/04 02:49:18;;;;;;;6.30;3.10;;;;;;;11.36;65.15;101348.17;107873;1257;71947;-82
2023/06/04 02:51:45;;;;;;;7.50;3.40;;;;;;;11.45;65.11;101349.66;107827;1257;72995;-83
2023/06/04 02:54:12;;;;;;;6.40;3.20;;;;;;;11.53;64.93;101352.61;108288;1257;71168;-83
2023/06/04 02:56:40;;;;;;;7.20;4.50;;;;;;;11.62;64.92;101354.30;107844;1257;61778;-82
2023/06/04 02:59:09;;;;;;;7.50;4.20;;;;;;;11.71;64.72;101362.73;107778;1257;60194;-83
2023/06/04 03:01:39;;;;;;;8.80;4.90;;;;;;;11.77;64.67;101358.33;107855;1257;73591;-83
2023/06/04 03:04:09;;;;;;;7.30;4.40;;;;;;;11.83;64.33;101363.49;107624;1257;70728;-83
2023/06/04 03:06:40;;;;;;;7.60;4.30;;;;;;;11.86;64.20;101361.34;107778;1257;72583;-83
2023/06/04 03:09:07;;;;;;;7.30;4.40;;;;;;;11.91;64.25;101364.61;107953;1257;62173;-83
2023/06/04 03:11:34;;;;;;;7.40;4.70;;;;;;;11.97;64.00;101368.40;107892;1257;60402;-82
2023/06/04 03:14:00;;;;;;;10.60;5.10;;;;;;;12.03;64.00;101375.11;107715;1257;73796;-81
2023/06/04 03:16:27;;;;;;;9.30;4.80;;;;;;;12.09;63.96;101376.65;107735;1257;72786;-82
2023/06/04 03:18:56;;;;;;;11.10;4.80;;;;;;;12.16;63.93;101376.38;107993;1256;71393;-81
2023/06/04 03:21:24;;;;;;;8.10;5.20;;;;;;;12.24;63.87;101377.50;107771;1257;61969;-83
2023/06/04 03:23:52;;;;;;;9.80;5.50;;;;;;;12.34;63.95;101378.80;107822;1257;60309;-83
2023/06/04 03:26:19;;;;;;;10.10;5.70;;;;;;;12.43;63.83;101385.39;107771;1256;73942;-83
2023/06/04 03:28:45;;;;;;;10.60;5.60;;;;;;;12.52;63.89;101384.29;108203;1256;72648;-81
2023/06/04 03:31:16;;;;;;;8.00;5.20;;;;;;;12.62;63.88;101380.75;107907;1259;72641;-81
2023/06/04 03:33:43;;;;;;;8.10;4.70;;;;;;;12.67;63.88;101380.01;107877;1256;60429;-81
2023/06/04 03:36:10;;;;;;;6.90;4.10;;;;;;;12.74;63.94;101382.65;107840;1257;60435;-82
2023/06/04 03:38:37;;;;;;;8.80;5.00;;;;;;;12.83;63.90;101380.57;107970;1260;72456;-82
2023/06/04 03:41:04;;;;;;;8.10;4.90;;;;;;;12.96;63.97;101383.75;107898;1256;72694;-81
2023/06/04 03:43:31;;;;;;;8.10;4.90;;;;;;;13.08;63.75;101377.39;107643;1256;73218;-82
2023/06/04 03:46:02;;;;;;;8.30;5.00;;;;;;;13.19;63.56;101378.57;107856;1256;62172;-82
2023/06/04 03:48:28;;;;;;;8.50;4.40;;;;;;;13.30;63.53;101371.52;107806;1257;60425;-82
2023/06/04 03:50:55;;;;;;;7.40;4.00;;;;;;;13.39;63.23;101367.56;107769;1260;73797;-80
2023/06/04 03:53:22;;;;;;;5.90;3.70;;;;;;;13.48;63.03;101364.09;107706;1257;72825;-80
2023/06/04 03:55:50;;;;;;;6.20;3.70;;;;;;;13.55;62.98;101366.88;107828;1258;72411;-80
2023/06/04 03:58:18;;;;;;;6.00;3.50;;;;;;;13.66;62.77;101365.95;107839;1256;60894;-80
2023/06/04 04:00:48;;;;;;;6.70;3.20;;;;;;;13.78;62.52;101367.65;107820;1257;60955;-80
2023/06/04 04:03:16;;;;;;;7.40;3.20;;;;;;;13.89;62.35;101373.50;107920;1256;73836;-80
2023/06/04 04:05:44;;;;;;;6.80;3.10;;;;;;;13.99;61.85;101375.94;107910;1257;74126;-80
2023/06/04 04:08:11;;;;;;;5.00;3.20;;;;;;;14.12;61.74;101374.67;107782;1257;71067;-80
2023/06/04 04:10:38;;;;;;;6.00;3.40;;;;;;;14.26;61.36;101376.79;107788;1257;60448;-81
2023/06/04 04:13:05;;;;;;;7.70;3.80;;;;;;;14.41;61.06;101376.70;107773;1255;60274;-81
2023/06/04 04:15:34;;;;;;;6.80;3.40;;;;;;;14.55;60.62;101378.61;108043;1257;73739;-80
2023/06/04 04:18:03;;;;;;;7.10;3.00;;;;;;;14.68;60.13;101378.43;107979;1257;72497;-80
2023/06/04 04:20:31;;;;;;;5.60;2.40;;;;;;;14.79;59.12;101373.46;107814;1258;72469;-80
2023/06/04 04:23:02;;;;;;;6.80;2.30;;;;;;;14.89;57.53;101374.78;107819;1262;60339;-80
2023/06/04 04:25:32;;;;;;;4.40;2.40;;;;;;;15.00;56.06;101376.09;107866;1257;60183;-80
2023/06/04 04:28:00;;;;;;;3.60;2.10;;;;;;;15.11;54.87;101373.91;107819;1257;73604;-80
2023/06/04 04:30:28;;;;;;;5.30;2.50;;;;;;;15.18;53.62;101378.02;107801;1256;72591;-80
2023/06/04 04:32:56;;;;;;;4.10;1.90;;;;;;;15.29;52.68;101379.64;107837;1256;72413;-79
2023/06/04 04:35:28;;;;;;;5.10;2.10;;;;;;;15.38;51.68;101376.99;107903;1256;60404;-80
2023/06/04 04:37:57;;;;;;;3.50;1.80;;;;;;;15.47;50.30;101376.63;107853;1259;61026;-80
2023/06/04 04:40:24;;;;;;;6.20;2.00;;;;;;;15.58;49.22;101374.52;107937;1260;73820;-79
2023/06/04 04:42:52;;;;;;;3.90;1.80;;;;;;;15.70;48.43;101370.97;107859;1257;71263;-80
2023/06/04 04:45:19;;;;;;;3.40;1.60;;;;;;;15.75;46.88;101372.77;107864;1258;72560;-81
2023/06/04 04:47:46;;;;;;;3.00;1.70;;;;;;;15.81;45.82;101370.59;107875;1256;60307;-79
2023/06/04 04:50:13;;;;;;;3.70;1.60;;;;;;;15.90;45.31;101374.57;107795;1256;60463;-79
2023/06/04 04:52:41;;;;;;;2.80;1.50;;;;;;;15.99;44.35;101375.20;107895;1257;73848;-79
2023/06/04 04:55:09;;;;;;;3.40;1.20;;;;;;;16.09;43.38;101374.52;107891;1256;72934;-79
2023/06/04 04:57:36;;;;;;;4.10;1.20;;;;;;;16.19;42.94;101373.20;107947;1256;72637;-80
2023/06/04 05:00:06;;;;;;;7.90;1.30;;;;;;;16.27;42.47;101372.80;107925;1256;60302;-80
2023/06/04 05:02:35;;;;;;;5.10;1.20;;;;;;;16.33;42.25;101374.13;107791;1256;60060;-80
2023/06/04 05:05:03;;;;;;;3.70;1.30;;;;;;;16.46;41.94;101377.30;107815;1257;73672;-81
2023/06/04 05:07:31;;;;;;;3.80;1.50;;;;;;;16.60;41.52;101380.33;107921;1256;72855;-79
2023/06/04 05:09:58;;;;;;;3.70;1.50;;;;;;;16.74;41.05;101379.99;107776;1257;70893;-79
2023/06/04 05:12:26;;;;;;;5.40;1.60;;;;;;;16.85;41.04;101377.25;107721;1257;60428;-80
2023/06/04 05:14:53;;;;;;;3.10;1.10;;;;;;;16.97;40.94;101380.15;107859;1256;60232;-79
2023/06/04 05:17:29;;;;;;;2.70;1.20;;;;;;;17.08;40.64;101375.05;107880;1257;73782;-79
2023/06/04 05:20:11;;;;;;;2.20;1.00;;;;;;;17.21;39.76;101373.40;107922;1258;72791;-81
2023/06/04 05:22:40;;;;;;;3.90;1.30;;;;;;;17.28;38.44;101375.46;107780;1257;72541;-79
2023/06/04 05:25:08;;;;;;;4.20;1.10;;;;;;;17.32;38.59;101376.02;107850;1257;61599;-80
2023/06/04 05:27:36;;;;;;;3.60;1.20;;;;;;;17.41;38.06;101377.98;107921;1256;60325;-80
2023/06/04 05:30:04;;;;;;;1.70;0.90;;;;;;;17.52;37.95;101380.55;107857;1256;73738;-80
2023/06/04 05:32:32;;;;;;;1.70;1.00;;;;;;;17.65;37.65;101383.68;107733;1256;73349;-80
2023/06/04 05:34:59;;;;;;;2.70;1.40;;;;;;;17.75;37.49;101379.98;107861;1256;71406;-80
2023/06/04 05:37:29;;;;;;;2.10;1.10;;;;;;;17.87;37.32;101379.29;107781;1256;60756;-79
2023/06/04 05:39:56;;;;;;;3.40;1.00;;;;;;;17.96;37.15;101379.78;107830;1257;61127;-80
2023/06/04 05:42:26;;;;;;;1.50;0.80;;;;;;;18.05;37.00;101381.67;107833;1256;72657;-80
2023/06/04 05:44:53;;;;;;;2.60;1.10;;;;;;;18.10;35.85;101375.59;107930;1256;72595;-80
2023/06/04 05:47:20;;;;;;;2.00;1.00;;;;;;;18.11;35.20;101372.92;107787;1256;71149;-79
2023/06/04 05:49:47;;;;;;;2.60;0.90;;;;;;;18.18;35.38;101373.82;107862;1256;60485;-81
2023/06/04 05:52:14;;;;;;;2.40;1.10;;;;;;;18.27;35.58;101373.98;107806;1257;60577;-80
2023/06/04 05:54:41;;;;;;;2.80;0.90;;;;;;;18.34;35.26;101376.01;107912;1256;72544;-80
2023/06/04 05:57:08;;;;;;;4.10;0.90;;;;;;;18.37;34.84;101379.00;107802;1256;71178;-80
2023/06/04 05:59:35;;;;;;;1.70;0.80;;;;;;;18.44;34.91;101377.89;107824;1257;72795;-80
2023/06/04 06:02:07;;;;;;;2.50;1.20;;;;;;;18.55;34.49;101377.10;107819;1256;60342;-80
2023/06/04 06:04:36;;;;;;;2.00;1.00;;;;;;;18.51;33.65;101373.20;107850;1257;60959;-80
2023/06/04 06:07:03;;;;;;;2.20;1.20;;;;;;;18.45;34.48;101376.10;107818;1262;72695;-80
2023/06/04 06:09:30;;;;;;;2.00;0.80;;;;;;;18.55;34.35;101374.73;107861;1257;72612;-80
2023/06/04 06:11:58;;;;;;;3.10;1.00;;;;;;;18.66;34.30;101376.46;108026;1257;71668;-80
2023/06/04 06:14:25;;;;;;;1.80;0.80;;;;;;;18.78;32.71;101375.38;107853;1257;60862;-81
2023/06/04 06:16:53;;;;;;;2.90;0.80;;;;;;;18.83;32.86;101376.64;107799;1257;60446;-80
2023/06/04 06:19:20;;;;;;;4.80;1.00;;;;;;;18.92;33.01;101378.36;107852;1256;73657;-80
2023/06/04 06:21:47;;;;;;;2.90;0.80;;;;;;;19.05;33.66;101379.74;107864;1256;72641;-80
2023/06/04 06:24:14;;;;;;;1.60;0.70;;;;;;;19.17;31.44;101375.16;107794;1262;71529;-81
2023/06/04 06:26:42;;;;;;;1.10;0.70;;;;;;;19.27;30.24;101374.48;107864;1257;60347;-80
2023/06/04 06:29:11;;;;;;;2.50;0.80;;;;;;;19.30;30.09;101372.30;107953;1256;60329;-81
2023/06/04 06:31:38;;;;;;;2.50;0.60;;;;;;;19.33;30.01;101378.70;107844;1256;73858;-80
2023/06/04 06:34:05;;;;;;;2.40;0.80;;;;;;;19.40;29.42;101381.02;107920;1257;73048;-80
2023/06/04 06:36:32;;;;;;;2.60;0.80;;;;;;;19.43;28.99;101382.33;107917;1256;71258;-80
2023/06/04 06:38:59;;;;;;;2.40;0.70;;;;;;;19.43;29.02;101380.22;107934;1256;60335;-80
2023/06/04 06:41:26;;;;;;;2.10;0.70;;;;;;;19.38;29.49;101382.37;107892;1256;60030;-81
2023/06/04 06:43:53;;;;;;;1.60;0.80;;;;;;;19.42;29.79;101382.68;107915;1259;73639;-78
2023/06/04 06:46:20;;;;;;;2.00;0.70;;;;;;;19.52;29.87;101376.93;107872;1257;72511;-81
2023/06/04 06:48:48;;;;;;;2.50;0.80;;;;;;;19.59;29.39;101378.59;107847;1257;72490;-81
2023/06/04 06:51:15;;;;;;;2.00;0.70;;;;;;;19.68;30.42;101377.27;107918;1256;60136;-80
2023/06/04 06:53:41;;;;;;;0.90;0.70;;;;;;;19.78;30.64;101378.69;107902;1256;60449;-79
2023/06/04 06:56:08;;;;;;;1.50;0.70;;;;;;;19.86;29.29;101377.39;107877;1256;72584;-79
2023/06/04 06:58:35;;;;;;;2.00;0.70;;;;;;;19.87;29.45;101372.95;107958;1256;72630;-81
2023/06/04 07:01:02;;;;;;;3.10;0.70;;;;;;;19.96;29.39;101369.36;107946;1260;72627;-81
2023/06/04 07:03:30;;;;;;;3.00;0.70;;;;;;;20.10;28.95;101368.98;107905;1257;60442;-81
2023/06/04 07:05:56;;;;;;;2.80;0.70;;;;;;;20.25;28.51;101371.28;107941;1256;60348;-81
2023/06/04 07:08:25;;;;;;;1.80;0.70;;;;;;;20.33;28.44;101372.36;107932;1256;73836;-81
2023/06/04 07:10:52;;;;;;;1.80;0.70;;;;;;;20.38;28.10;101374.42;108020;1256;72491;-80
2023/06/04 07:13:19;;;;;;;1.50;0.90;;;;;;;20.34;27.41;101378.73;107929;1256;72663;-79
2023/06/04 07:15:46;;;;;;;1.80;0.70;;;;;;;20.23;27.57;101375.21;107874;1256;59633;-80
2023/06/04 07:18:13;;;;;;;2.50;1.10;;;;;;;20.24;28.01;101379.64;107890;1256;60343;-80
2023/06/04 07:20:40;;;;;;;1.40;0.70;;;;;;;20.30;28.01;101379.10;107896;1258;72589;-80
2023/06/04 07:23:07;;;;;;;2.10;0.90;;;;;;;20.30;27.10;101380.77;107865;1257;71735;-80
2023/06/04 07:25:34;;;;;;;2.90;0.90;;;;;;;20.26;27.19;101377.39;107730;1256;72584;-80
2023/06/04 07:28:03;;;;;;;2.70;1.10;;;;;;;20.14;26.98;101382.13;107693;1256;219881;-79
2023/06/04 07:30:34;;;;;;;3.10;1.30;;;;;;;20.04;27.75;101387.42;107916;1256;60431;-80
2023/06/04 07:33:04;;;;;;;1.90;0.70;;;;;;;20.08;28.21;101387.77;107920;1259;73676;-80
2023/06/04 07:35:31;;;;;;;1.40;0.80;;;;;;;20.21;27.75;101387.20;107803;1256;71594;-80
2023/06/04 07:37:57;;;;;;;3.30;1.00;;;;;;;20.39;28.20;101386.19;107882;1256;72451;-80
2023/06/04 07:40:24;;;;;;;1.60;0.80;;;;;;;20.60;28.56;101381.17;107925;1256;60395;-79
2023/06/04 07:42:51;;;;;;;2.40;0.70;;;;;;;20.80;28.13;101378.77;107869;1256;60344;-79
2023/06/04 07:45:18;;;;;;;2.50;0.90;;;;;;;20.90;26.11;101377.05;107873;1256;73688;-79
2023/06/04 07:47:45;;;;;;;1.20;0.80;;;;;;;20.87;26.09;101383.49;107858;1256;72658;-81
2023/06/04 07:50:12;;;;;;;4.70;0.80;;;;;;;20.83;25.79;101383.74;107871;1257;71363;-80
2023/06/04 07:52:39;;;;;;;1.70;0.70;;;;;;;20.76;25.46;101383.63;107903;1256;60399;-80
2023/06/04 07:55:08;;;;;;;3.20;0.80;;;;;;;20.75;25.63;101376.27;107939;1256;60344;-81
2023/06/04 07:57:36;;;;;;;3.50;0.80;;;;;;;20.83;25.89;101376.20;107922;1256;74351;-81
2023/06/04 08:00:05;;;;;;;2.50;0.90;;;;;;;20.93;26.21;101379.20;107920;1256;72622;-79
2023/06/04 08:02:38;;;;;;;2.00;0.80;;;;;;;21.04;26.18;101378.39;107892;1256;72713;-80
2023/06/04 08:05:05;;;;;;;1.70;0.70;;;;;;;21.13;26.41;101378.23;107824;1256;60371;-80
2023/06/04 08:07:33;;;;;;;2.40;0.80;;;;;;;21.19;26.71;101378.13;107892;1256;60357;-80
2023/06/04 08:10:00;;;;;;;2.80;1.00;;;;;;;21.26;26.67;101380.64;107900;1257;73801;-80
2023/06/04 08:12:27;;;;;;;2.20;0.90;;;;;;;21.33;25.51;101374.39;107916;1256;72711;-80
2023/06/04 08:14:57;;;;;;;1.50;0.70;;;;;;;21.39;25.21;101371.55;107916;1256;72503;-80
2023/06/04 08:17:24;;;;;;;2.90;0.90;;;;;;;21.41;24.46;101375.25;107902;1257;60336;-80
2023/06/04 08:19:51;;;;;;;1.30;0.80;;;;;;;21.36;24.91;101371.50;107836;1256;60435;-80
2023/06/04 08:22:18;;;;;;;2.30;0.80;;;;;;;21.40;24.89;101368.70;107900;1256;73717;-82
2023/06/04 08:24:45;;;;;;;3.60;1.00;;;;;;;21.48;24.92;101372.95;107975;1256;72689;-79
2023/06/04 08:27:11;;;;;;;1.90;0.50;;;;;;;21.58;25.03;101373.73;107889;1256;72573;-80
2023/06/04 08:29:40;;;;;;;1.60;0.90;;;;;;;21.64;24.77;101375.38;107841;1256;60455;-80
2023/06/04 08:32:07;;;;;;;2.10;0.80;;;;;;;21.71;24.64;101371.92;107961;1256;60397;-79
2023/06/04 08:34:34;;;;;;;1.90;0.70;;;;;;;21.78;24.44;101368.70;107987;1256;73882;-81
2023/06/04 08:37:01;;;;;;;1.20;0.60;;;;;;;21.87;24.89;101371.46;107933;1257;72849;-80
2023/06/04 08:39:28;;;;;;;1.80;0.70;;;;;;;21.92;24.50;101372.17;107927;1256;72459;-81
2023/06/04 08:41:57;;;;;;;1.50;0.70;;;;;;;21.97;24.45;101367.64;107927;1256;60342;-80
2023/06/04 08:44:23;;;;;;;1.70;0.50;;;;;;;22.04;23.37;101367.55;108026;1256;60345;-80
2023/06/04 08:46:52;;;;;;;3.00;0.70;;;;;;;22.03;23.00;101361.66;107863;1256;73684;-79
2023/06/04 08:49:21;;;;;;;1.10;0.70;;;;;;;22.03;23.02;101364.16;107921;1257;72546;-82
2023/06/04 08:51:49;;;;;;;3.10;0.90;;;;;;;21.99;22.95;101358.27;107799;1256;72320;-80
2023/06/04 08:54:16;;;;;;;2.20;0.70;;;;;;;21.93;22.96;101358.27;107681;1256;60348;-82
2023/06/04 08:56:43;;;;;;;2.20;0.70;;;;;;;21.85;22.99;101362.47;107687;1256;59042;-80
2023/06/04 08:59:10;;;;;;;2.30;0.70;;;;;;;21.76;22.75;101359.70;107948;1256;73654;-80
2023/06/04 09:01:38;;;;;;;1.50;0.70;;;;;;;21.76;23.66;101358.96;107938;1256;71419;-82
2023/06/04 09:04:06;;;;;;;2.20;0.90;;;;;;;21.85;24.98;101352.52;107912;1257;71393;-79
2023/06/04 09:06:37;;;;;;;4.00;0.90;;;;;;;22.04;24.34;101355.15;107938;1257;60442;-81
2023/06/04 09:09:05;;;;;;;1.20;0.60;;;;;;;22.16;22.96;101349.28;107926;1258;60284;-80
2023/06/04 09:11:45;;;;;;;0.80;0.50;;;;;;;22.18;23.38;101351.73;107871;1256;72372;-81
2023/06/04 09:14:16;;;;;;;2.00;0.70;;;;;;;22.29;23.87;101350.35;107789;1256;72936;-80
2023/06/04 09:16:51;;;;;;;1.30;0.60;;;;;;;22.39;23.60;101348.84;107983;1256;72455;-80
2023/06/04 09:19:18;;;;;;;1.40;0.70;;;;;;;22.46;22.80;101347.69;107941;1256;60450;-80
2023/06/04 09:22:05;;;;;;;1.80;0.80;;;;;;;22.48;23.00;101346.35;107974;1256;60328;-79
2023/06/04 09:24:49;;;;;;;1.10;0.60;;;;;;;22.62;23.30;101341.88;107847;1259;73784;-80
2023/06/04 09:27:18;;;;;;;2.20;0.90;;;;;;;22.72;22.13;101332.49;107834;1257;72623;-79
2023/06/04 09:29:54;;;;;;;1.40;0.70;;;;;;;22.58;21.72;101334.22;107853;1258;71442;-79
2023/06/04 09:32:26;;;;;;;1.70;0.80;;;;;;;22.53;22.29;101337.33;107846;1256;60511;-80
2023/06/04 09:34:53;;;;;;;;;;;;;;;22.57;22.07;101335.17;108001;1256;59333;-80
2023/06/04 09:37:22;;;;;;;1.30;0.70;;;;;;;22.52;21.70;101333.85;108011;1256;72336;-80
2023/06/04 09:39:53;;;;;;;3.10;0.80;;;;;;;22.43;22.03;101333.30;107740;1256;72603;-81
2023/06/04 09:42:22;;;;;;;1.90;0.70;;;;;;;22.40;22.62;101329.10;107942;1256;72734;-81
2023/06/04 09:44:48;;;;;;;1.40;0.70;;;;;;;22.44;22.38;101323.54;107980;1256;60332;-81
2023/06/04 09:47:15;;;;;;;1.20;0.70;;;;;;;22.43;22.20;101320.02;107982;1256;60175;-83
2023/06/04 09:49:46;;;;;;;1.00;0.60;;;;;;;22.39;22.07;101322.06;108044;1256;73670;-80
2023/06/04 09:52:14;;;;;;;;;;;;;;;22.45;22.71;101320.95;108202;1256;71427;-83
2023/06/04 09:54:41;;;;;;;1.90;0.80;;;;;;;22.56;23.11;101318.02;108038;1256;71249;-80
2023/06/04 09:57:18;;;;;;;1.00;0.70;;;;;;;22.64;22.79;101318.18;107966;1256;60399;-81
2023/06/04 09:59:46;;;;;;;1.80;0.90;;;;;;;22.68;21.91;101316.33;108129;1257;60513;-81
2023/06/04 10:02:13;;;;;;;1.60;0.70;;;;;;;22.68;22.44;101315.23;108252;1258;72899;-81
2023/06/04 10:04:43;;;;;;;1.10;0.70;;;;;;;22.77;22.65;101311.73;107988;1256;72790;-83
2023/06/04 10:07:12;;;;;;;1.60;0.70;;;;;;;22.89;21.74;101312.17;107954;1256;72610;-81
2023/06/04 10:09:45;;;;;;;1.80;0.90;;;;;;;22.94;21.30;101304.67;107939;1260;60427;-82
2023/06/04 10:12:16;;;;;;;1.80;0.90;;;;;;;22.89;21.32;101305.41;107716;1256;60559;-82
2023/06/04 10:14:52;;;;;;;2.80;1.10;;;;;;;22.66;21.51;101290.85;107963;1257;73869;-82
2023/06/04 10:17:23;;;;;;;2.40;1.10;;;;;;;22.44;21.95;101296.70;107841;1258;71242;-80
2023/06/04 10:19:54;;;;;;;3.20;1.00;;;;;;;22.36;22.21;101298.92;107912;1257;71400;-82
2023/06/04 10:22:21;;;;;;;3.00;0.90;;;;;;;22.45;22.71;101295.65;107802;1258;60254;-82
2023/06/04 10:24:47;;;;;;;1.60;0.80;;;;;;;22.58;22.86;101294.15;107699;1257;61095;-79
2023/06/04 10:27:14;;;;;;;4.00;1.20;;;;;;;22.77;23.55;101296.26;107906;1256;73258;-80
2023/06/04 10:29:44;;;;;;;1.60;0.70;;;;;;;22.99;23.05;101297.70;107916;1256;71379;-80
2023/06/04 10:32:11;;;;;;;2.80;0.70;;;;;;;23.18;22.89;101296.11;107822;1256;72337;-79
2023/06/04 10:34:38;;;;;;;1.90;0.70;;;;;;;23.26;22.40;101296.38;107938;1256;60983;-81
2023/06/04 10:37:05;;;;;;;3.20;0.80;;;;;;;23.22;22.19;101293.70;107991;1260;60353;-80
2023/06/04 10:39:32;;;;;;;1.70;0.60;;;;;;;23.22;22.63;101292.77;107871;1256;72178;-80
2023/06/04 10:42:03;;;;;;;1.60;0.60;;;;;;;23.30;22.31;101288.00;108017;1256;72486;-81
2023/06/04 10:44:31;;;;;;;4.00;0.70;;;;;;;23.45;22.53;101290.77;107926;1257;72720;-78
2023/06/04 10:46:58;;;;;;;1.50;0.80;;;;;;;23.61;22.80;101288.85;107946;1256;60380;-82
2023/06/04 10:49:28;;;;;;;3.30;0.80;;;;;;;23.77;22.53;101281.59;107981;1256;60543;-80
2023/06/04 10:52:03;;;;;;;2.00;0.90;;;;;;;23.86;21.81;101276.19;107947;1257;74165;-80
2023/06/04 10:54:29;;;;;;;1.30;0.80;;;;;;;23.86;22.12;101274.64;107979;1256;71457;-80
2023/06/04 10:56:56;;;;;;;1.70;0.80;;;;;;;23.92;22.19;101272.08;107960;1256;72795;-79
2023/06/04 10:59:24;;;;;;;2.20;0.80;;;;;;;23.94;21.49;101267.67;107965;1259;59895;-80
2023/06/04 11:01:51;;;;;;;4.00;1.10;;;;;;;23.91;20.75;101267.80;107758;1256;59462;-80
2023/06/04 11:04:21;;;;;;;2.10;0.90;;;;;;;23.82;20.77;101262.38;107954;1257;73700;-80
2023/06/04 11:07:08;;;;;;;2.30;0.90;;;;;;;23.81;21.02;101258.75;107996;1256;72809;-80
2023/06/04 11:09:36;;;;;;;3.20;0.70;;;;;;;23.85;20.85;101252.91;107986;1256;72505;-80
2023/06/04 11:12:05;;;;;;;2.60;0.90;;;;;;;23.93;21.15;101250.36;107937;1257;60376;-81
2023/06/04 11:14:32;;;;;;;2.40;0.80;;;;;;;24.00;21.33;101248.74;107902;1257;60352;-81
2023/06/04 11:17:11;;;;;;;2.20;1.00;;;;;;;24.06;21.52;101247.73;107814;1258;72742;-83
2023/06/04 11:19:38;;;;;;;1.60;0.90;;;;;;;24.12;20.86;101246.89;107830;1256;72634;-81
2023/06/04 11:22:05;;;;;;;1.80;0.90;;;;;;;24.12;20.70;101243.89;107996;1256;72803;-81
2023/06/04 11:24:33;;;;;;;1.20;0.80;;;;;;;24.10;20.40;101245.79;107979;1256;60878;-81